Terminal Aerodrome Forecast
Issued by NWS

Home | Current Version | Previous Version | Text Only | Print | Product List | Glossary On
Versions: 1 2 3 4 5 6 7 8 9 10 11 12
000
FTUS45 KABQ 280543
TAFTCC
TAF
KTCC 280543Z 2806/2906 19005KT P6SM SCT250
     FM281000 16008KT P6SM SCT030 SCT250
      TEMPO 2811/2814 BKN030
     FM281800 19015G23KT P6SM SCT200
     FM282200 17015G23KT P6SM VCTS SCT080CB BKN130
     FM290100 14010KT P6SM VCSH BKN080 OVC130=

USA.gov is the U.S. government's official web portal to all federal, state and local government web resources and services.